Terminal Aerodrome Forecast
Issued by NWS

Home | Current Version | Previous Version | Graphics & Text | Print | Product List | Glossary On
Versions: 1 2 3 4 5 6 7 8 9 10 11 12 13 14
000
FTUS43 KMPX 251100
TAFRWF
TAF
KRWF 251124Z 2512/2612 28004KT P6SM SKC
     FM251800 28009KT P6SM FEW200
     FM260100 31005KT P6SM BKN100=

USA.gov is the U.S. government's official web portal to all federal, state and local government web resources and services.